sensor_id;sensor_type;location;lat;lon;timestamp;P1;durP1;ratioP1;P2;durP2;ratioP2
1346;SDS011;667;48.796;9.480;2023-12-20T00:02:15;2.40;;;1.60;;
1346;SDS011;667;48.796;9.480;2023-12-20T00:04:41;3.07;;;2.50;;
1346;SDS011;667;48.796;9.480;2023-12-20T00:07:07;2.37;;;1.90;;
1346;SDS011;667;48.796;9.480;2023-12-20T00:09:32;2.67;;;1.90;;
1346;SDS011;667;48.796;9.480;2023-12-20T00:11:58;3.40;;;2.30;;
1346;SDS011;667;48.796;9.480;2023-12-20T00:14:23;2.10;;;1.60;;
1346;SDS011;667;48.796;9.480;2023-12-20T00:16:49;2.23;;;1.83;;
1346;SDS011;667;48.796;9.480;2023-12-20T00:19:15;2.37;;;2.10;;
1346;SDS011;667;48.796;9.480;2023-12-20T00:21:40;4.67;;;2.80;;
1346;SDS011;667;48.796;9.480;2023-12-20T00:24:06;1.93;;;1.83;;
1346;SDS011;667;48.796;9.480;2023-12-20T00:26:31;2.30;;;2.07;;
1346;SDS011;667;48.796;9.480;2023-12-20T00:28:57;1.30;;;1.20;;
1346;SDS011;667;48.796;9.480;2023-12-20T00:31:22;2.67;;;2.00;;
1346;SDS011;667;48.796;9.480;2023-12-20T00:33:48;2.00;;;1.63;;
1346;SDS011;667;48.796;9.480;2023-12-20T00:36:13;2.70;;;1.70;;
1346;SDS011;667;48.796;9.480;2023-12-20T00:38:39;2.57;;;2.37;;
1346;SDS011;667;48.796;9.480;2023-12-20T00:41:04;3.00;;;2.50;;
1346;SDS011;667;48.796;9.480;2023-12-20T00:43:30;4.13;;;3.27;;
1346;SDS011;667;48.796;9.480;2023-12-20T00:45:55;3.40;;;2.50;;
1346;SDS011;667;48.796;9.480;2023-12-20T00:48:22;2.63;;;2.42;;
1346;SDS011;667;48.796;9.480;2023-12-20T00:50:47;1.50;;;1.40;;
1346;SDS011;667;48.796;9.480;2023-12-20T00:53:13;4.03;;;3.63;;
1346;SDS011;667;48.796;9.480;2023-12-20T00:55:38;3.00;;;2.70;;
1346;SDS011;667;48.796;9.480;2023-12-20T00:58:04;3.63;;;3.33;;
1346;SDS011;667;48.796;9.480;2023-12-20T01:00:29;2.67;;;2.47;;
1346;SDS011;667;48.796;9.480;2023-12-20T01:02:55;4.93;;;3.60;;
1346;SDS011;667;48.796;9.480;2023-12-20T01:05:21;3.37;;;2.70;;
1346;SDS011;667;48.796;9.480;2023-12-20T01:07:48;3.97;;;3.00;;
1346;SDS011;667;48.796;9.480;2023-12-20T01:10:14;3.83;;;3.40;;
1346;SDS011;667;48.796;9.480;2023-12-20T01:12:40;3.50;;;2.83;;
1346;SDS011;667;48.796;9.480;2023-12-20T01:15:05;3.80;;;1.93;;
1346;SDS011;667;48.796;9.480;2023-12-20T01:17:31;2.70;;;2.30;;
1346;SDS011;667;48.796;9.480;2023-12-20T01:19:57;3.47;;;3.17;;
1346;SDS011;667;48.796;9.480;2023-12-20T01:22:23;4.88;;;3.13;;
1346;SDS011;667;48.796;9.480;2023-12-20T01:24:48;3.90;;;2.60;;
1346;SDS011;667;48.796;9.480;2023-12-20T01:27:14;3.53;;;2.60;;
1346;SDS011;667;48.796;9.480;2023-12-20T01:29:39;3.40;;;2.60;;
1346;SDS011;667;48.796;9.480;2023-12-20T01:32:05;2.37;;;2.17;;
1346;SDS011;667;48.796;9.480;2023-12-20T01:34:31;2.17;;;1.77;;
1346;SDS011;667;48.796;9.480;2023-12-20T01:36:57;1.70;;;1.57;;
1346;SDS011;667;48.796;9.480;2023-12-20T01:39:22;5.27;;;4.33;;
1346;SDS011;667;48.796;9.480;2023-12-20T01:41:48;2.93;;;1.93;;
1346;SDS011;667;48.796;9.480;2023-12-20T01:44:13;2.67;;;2.30;;
1346;SDS011;667;48.796;9.480;2023-12-20T01:46:39;8.60;;;5.60;;
1346;SDS011;667;48.796;9.480;2023-12-20T01:49:05;7.38;;;3.58;;
1346;SDS011;667;48.796;9.480;2023-12-20T01:51:32;4.82;;;3.25;;
1346;SDS011;667;48.796;9.480;2023-12-20T01:53:58;3.58;;;2.85;;
1346;SDS011;667;48.796;9.480;2023-12-20T01:56:25;2.13;;;1.95;;
1346;SDS011;667;48.796;9.480;2023-12-20T01:58:53;7.57;;;6.10;;
1346;SDS011;667;48.796;9.480;2023-12-20T02:01:19;2.53;;;2.10;;
1346;SDS011;667;48.796;9.480;2023-12-20T02:03:45;4.03;;;3.00;;
1346;SDS011;667;48.796;9.480;2023-12-20T02:06:12;7.15;;;2.88;;
1346;SDS011;667;48.796;9.480;2023-12-20T02:08:37;2.33;;;2.13;;
1346;SDS011;667;48.796;9.480;2023-12-20T02:11:03;2.20;;;2.00;;
1346;SDS011;667;48.796;9.480;2023-12-20T02:13:30;2.10;;;1.77;;
1346;SDS011;667;48.796;9.480;2023-12-20T02:15:56;2.17;;;1.98;;
1346;SDS011;667;48.796;9.480;2023-12-20T02:18:21;2.47;;;1.90;;
1346;SDS011;667;48.796;9.480;2023-12-20T02:20:47;1.52;;;1.30;;
1346;SDS011;667;48.796;9.480;2023-12-20T02:23:13;2.00;;;1.90;;
1346;SDS011;667;48.796;9.480;2023-12-20T02:25:38;2.70;;;2.20;;
1346;SDS011;667;48.796;9.480;2023-12-20T02:28:04;2.60;;;2.03;;
1346;SDS011;667;48.796;9.480;2023-12-20T02:30:31;2.63;;;2.40;;
1346;SDS011;667;48.796;9.480;2023-12-20T02:32:57;2.50;;;1.97;;
1346;SDS011;667;48.796;9.480;2023-12-20T02:35:25;3.22;;;2.13;;
1346;SDS011;667;48.796;9.480;2023-12-20T02:37:50;1.90;;;1.63;;
1346;SDS011;667;48.796;9.480;2023-12-20T02:40:16;1.90;;;1.70;;
1346;SDS011;667;48.796;9.480;2023-12-20T02:42:41;2.10;;;1.90;;
1346;SDS011;667;48.796;9.480;2023-12-20T02:45:07;1.47;;;1.37;;
1346;SDS011;667;48.796;9.480;2023-12-20T02:47:33;1.40;;;1.30;;
1346;SDS011;667;48.796;9.480;2023-12-20T02:49:58;3.20;;;2.27;;
1346;SDS011;667;48.796;9.480;2023-12-20T02:52:24;2.97;;;2.23;;
1346;SDS011;667;48.796;9.480;2023-12-20T02:54:50;2.38;;;2.17;;
1346;SDS011;667;48.796;9.480;2023-12-20T02:57:16;2.70;;;2.27;;
1346;SDS011;667;48.796;9.480;2023-12-20T02:59:41;2.57;;;2.30;;
1346;SDS011;667;48.796;9.480;2023-12-20T03:02:07;3.17;;;2.03;;
1346;SDS011;667;48.796;9.480;2023-12-20T03:04:32;2.70;;;2.07;;
1346;SDS011;667;48.796;9.480;2023-12-20T03:06:58;2.47;;;2.27;;
1346;SDS011;667;48.796;9.480;2023-12-20T03:09:23;3.53;;;2.70;;
1346;SDS011;667;48.796;9.480;2023-12-20T03:11:49;2.17;;;1.90;;
1346;SDS011;667;48.796;9.480;2023-12-20T03:14:15;2.60;;;2.20;;
1346;SDS011;667;48.796;9.480;2023-12-20T03:16:40;2.90;;;2.60;;
1346;SDS011;667;48.796;9.480;2023-12-20T03:19:06;2.20;;;1.70;;
1346;SDS011;667;48.796;9.480;2023-12-20T03:21:31;2.67;;;2.43;;
1346;SDS011;667;48.796;9.480;2023-12-20T03:23:57;3.70;;;2.60;;
1346;SDS011;667;48.796;9.480;2023-12-20T03:26:22;3.30;;;2.80;;
1346;SDS011;667;48.796;9.480;2023-12-20T03:28:48;3.70;;;2.83;;
1346;SDS011;667;48.796;9.480;2023-12-20T03:31:14;3.40;;;2.73;;
1346;SDS011;667;48.796;9.480;2023-12-20T03:33:39;3.50;;;3.20;;
1346;SDS011;667;48.796;9.480;2023-12-20T03:36:05;2.87;;;2.60;;
1346;SDS011;667;48.796;9.480;2023-12-20T03:38:31;3.30;;;2.40;;
1346;SDS011;667;48.796;9.480;2023-12-20T03:40:56;3.10;;;2.60;;
1346;SDS011;667;48.796;9.480;2023-12-20T03:43:22;2.67;;;2.47;;
1346;SDS011;667;48.796;9.480;2023-12-20T03:45:47;3.10;;;2.80;;
1346;SDS011;667;48.796;9.480;2023-12-20T03:48:13;3.30;;;2.57;;
1346;SDS011;667;48.796;9.480;2023-12-20T03:50:39;8.30;;;1.93;;
1346;SDS011;667;48.796;9.480;2023-12-20T03:53:04;2.80;;;2.60;;
1346;SDS011;667;48.796;9.480;2023-12-20T03:55:30;2.07;;;1.90;;
1346;SDS011;667;48.796;9.480;2023-12-20T03:57:55;2.20;;;2.07;;
1346;SDS011;667;48.796;9.480;2023-12-20T04:00:21;5.33;;;2.80;;
1346;SDS011;667;48.796;9.480;2023-12-20T04:02:46;3.43;;;3.13;;
1346;SDS011;667;48.796;9.480;2023-12-20T04:05:12;2.57;;;2.37;;
1346;SDS011;667;48.796;9.480;2023-12-20T04:07:38;3.77;;;2.50;;
1346;SDS011;667;48.796;9.480;2023-12-20T04:10:04;4.40;;;3.10;;
1346;SDS011;667;48.796;9.480;2023-12-20T04:12:30;3.13;;;2.83;;
1346;SDS011;667;48.796;9.480;2023-12-20T04:14:56;2.17;;;1.93;;
1346;SDS011;667;48.796;9.480;2023-12-20T04:17:22;2.73;;;2.30;;
1346;SDS011;667;48.796;9.480;2023-12-20T04:19:48;2.03;;;1.83;;
1346;SDS011;667;48.796;9.480;2023-12-20T04:22:14;1.40;;;1.30;;
1346;SDS011;667;48.796;9.480;2023-12-20T04:24:40;1.83;;;1.63;;
1346;SDS011;667;48.796;9.480;2023-12-20T04:27:07;1.50;;;1.40;;
1346;SDS011;667;48.796;9.480;2023-12-20T04:29:33;0.90;;;0.90;;
1346;SDS011;667;48.796;9.480;2023-12-20T04:31:58;1.23;;;1.13;;
1346;SDS011;667;48.796;9.480;2023-12-20T04:34:24;1.70;;;1.47;;
1346;SDS011;667;48.796;9.480;2023-12-20T04:36:50;1.13;;;1.03;;
1346;SDS011;667;48.796;9.480;2023-12-20T04:39:15;1.20;;;1.10;;
1346;SDS011;667;48.796;9.480;2023-12-20T04:41:41;0.90;;;0.90;;
1346;SDS011;667;48.796;9.480;2023-12-20T04:44:06;1.60;;;0.90;;
1346;SDS011;667;48.796;9.480;2023-12-20T04:46:32;1.07;;;0.93;;
1346;SDS011;667;48.796;9.480;2023-12-20T04:48:57;1.20;;;1.10;;
1346;SDS011;667;48.796;9.480;2023-12-20T04:51:23;1.10;;;1.00;;
1346;SDS011;667;48.796;9.480;2023-12-20T04:53:49;1.40;;;1.00;;
1346;SDS011;667;48.796;9.480;2023-12-20T04:56:14;1.20;;;1.03;;
1346;SDS011;667;48.796;9.480;2023-12-20T04:58:40;1.80;;;1.50;;
1346;SDS011;667;48.796;9.480;2023-12-20T05:01:05;1.20;;;1.10;;
1346;SDS011;667;48.796;9.480;2023-12-20T05:03:32;0.68;;;0.68;;
1346;SDS011;667;48.796;9.480;2023-12-20T05:05:57;1.00;;;0.97;;
1346;SDS011;667;48.796;9.480;2023-12-20T05:08:23;5.57;;;3.20;;
1346;SDS011;667;48.796;9.480;2023-12-20T05:10:49;2.00;;;1.00;;
1346;SDS011;667;48.796;9.480;2023-12-20T05:13:16;1.00;;;0.70;;
1346;SDS011;667;48.796;9.480;2023-12-20T05:15:41;0.50;;;0.50;;
1346;SDS011;667;48.796;9.480;2023-12-20T05:18:07;2.67;;;1.07;;
1346;SDS011;667;48.796;9.480;2023-12-20T05:20:33;1.23;;;0.73;;
1346;SDS011;667;48.796;9.480;2023-12-20T05:22:58;2.47;;;0.73;;
1346;SDS011;667;48.796;9.480;2023-12-20T05:25:24;1.03;;;0.90;;
1346;SDS011;667;48.796;9.480;2023-12-20T05:27:50;0.80;;;0.70;;
1346;SDS011;667;48.796;9.480;2023-12-20T05:30:15;0.82;;;0.75;;
1346;SDS011;667;48.796;9.480;2023-12-20T05:32:41;1.30;;;0.93;;
1346;SDS011;667;48.796;9.480;2023-12-20T05:35:06;0.83;;;0.83;;
1346;SDS011;667;48.796;9.480;2023-12-20T05:37:32;2.43;;;2.23;;
1346;SDS011;667;48.796;9.480;2023-12-20T05:39:58;3.00;;;2.10;;
1346;SDS011;667;48.796;9.480;2023-12-20T05:42:23;3.07;;;2.57;;
1346;SDS011;667;48.796;9.480;2023-12-20T05:44:49;42.17;;;26.50;;
1346;SDS011;667;48.796;9.480;2023-12-20T05:47:14;51.13;;;37.97;;
1346;SDS011;667;48.796;9.480;2023-12-20T05:49:40;47.00;;;37.40;;
1346;SDS011;667;48.796;9.480;2023-12-20T05:52:05;36.73;;;30.20;;
1346;SDS011;667;48.796;9.480;2023-12-20T05:54:31;10.23;;;9.20;;
1346;SDS011;667;48.796;9.480;2023-12-20T05:56:57;2.60;;;2.23;;
1346;SDS011;667;48.796;9.480;2023-12-20T05:59:22;1.13;;;1.03;;
1346;SDS011;667;48.796;9.480;2023-12-20T06:01:48;1.10;;;1.00;;
1346;SDS011;667;48.796;9.480;2023-12-20T06:04:13;0.50;;;0.50;;
1346;SDS011;667;48.796;9.480;2023-12-20T06:06:42;4.27;;;0.60;;
1346;SDS011;667;48.796;9.480;2023-12-20T06:09:08;0.65;;;0.50;;
1346;SDS011;667;48.796;9.480;2023-12-20T06:11:36;0.57;;;0.50;;
1346;SDS011;667;48.796;9.480;2023-12-20T06:14:02;0.50;;;0.50;;
1346;SDS011;667;48.796;9.480;2023-12-20T06:16:28;0.63;;;0.63;;
1346;SDS011;667;48.796;9.480;2023-12-20T06:18:53;0.87;;;0.67;;
1346;SDS011;667;48.796;9.480;2023-12-20T06:21:19;0.70;;;0.70;;
1346;SDS011;667;48.796;9.480;2023-12-20T06:23:45;1.90;;;0.77;;
1346;SDS011;667;48.796;9.480;2023-12-20T06:26:10;0.50;;;0.50;;
1346;SDS011;667;48.796;9.480;2023-12-20T06:28:36;0.70;;;0.70;;
1346;SDS011;667;48.796;9.480;2023-12-20T06:31:02;0.50;;;0.50;;
1346;SDS011;667;48.796;9.480;2023-12-20T06:33:28;0.50;;;0.50;;
1346;SDS011;667;48.796;9.480;2023-12-20T06:35:55;2.75;;;0.80;;
1346;SDS011;667;48.796;9.480;2023-12-20T06:38:21;2.30;;;0.73;;
1346;SDS011;667;48.796;9.480;2023-12-20T06:40:47;0.70;;;0.70;;
1346;SDS011;667;48.796;9.480;2023-12-20T06:43:12;0.50;;;0.50;;
1346;SDS011;667;48.796;9.480;2023-12-20T06:45:38;1.70;;;0.70;;
1346;SDS011;667;48.796;9.480;2023-12-20T06:48:04;1.80;;;0.80;;
1346;SDS011;667;48.796;9.480;2023-12-20T06:50:30;0.80;;;0.80;;
1346;SDS011;667;48.796;9.480;2023-12-20T06:52:55;2.10;;;0.70;;
1346;SDS011;667;48.796;9.480;2023-12-20T06:55:21;0.77;;;0.77;;
1346;SDS011;667;48.796;9.480;2023-12-20T06:57:46;3.27;;;1.97;;
1346;SDS011;667;48.796;9.480;2023-12-20T07:00:12;3.10;;;1.93;;
1346;SDS011;667;48.796;9.480;2023-12-20T07:02:38;4.28;;;2.05;;
1346;SDS011;667;48.796;9.480;2023-12-20T07:05:04;7.10;;;3.53;;
1346;SDS011;667;48.796;9.480;2023-12-20T07:07:30;4.30;;;3.67;;
1346;SDS011;667;48.796;9.480;2023-12-20T07:09:55;4.50;;;2.90;;
1346;SDS011;667;48.796;9.480;2023-12-20T07:12:21;5.23;;;3.03;;
1346;SDS011;667;48.796;9.480;2023-12-20T07:14:46;4.77;;;3.00;;
1346;SDS011;667;48.796;9.480;2023-12-20T07:17:12;4.23;;;2.93;;
1346;SDS011;667;48.796;9.480;2023-12-20T07:19:39;4.15;;;3.10;;
1346;SDS011;667;48.796;9.480;2023-12-20T07:22:05;3.90;;;3.37;;
1346;SDS011;667;48.796;9.480;2023-12-20T07:24:31;4.50;;;2.95;;
1346;SDS011;667;48.796;9.480;2023-12-20T07:26:57;3.87;;;2.63;;
1346;SDS011;667;48.796;9.480;2023-12-20T07:29:24;4.63;;;3.45;;
1346;SDS011;667;48.796;9.480;2023-12-20T07:31:50;3.23;;;2.63;;
1346;SDS011;667;48.796;9.480;2023-12-20T07:34:17;3.50;;;2.50;;
1346;SDS011;667;48.796;9.480;2023-12-20T07:36:42;2.50;;;1.90;;
1346;SDS011;667;48.796;9.480;2023-12-20T07:39:08;3.00;;;2.40;;
1346;SDS011;667;48.796;9.480;2023-12-20T07:41:33;2.50;;;2.30;;
1346;SDS011;667;48.796;9.480;2023-12-20T07:43:59;2.63;;;2.33;;
1346;SDS011;667;48.796;9.480;2023-12-20T07:46:24;3.50;;;2.80;;
1346;SDS011;667;48.796;9.480;2023-12-20T07:48:50;3.53;;;3.07;;
1346;SDS011;667;48.796;9.480;2023-12-20T07:51:16;3.77;;;3.17;;
1346;SDS011;667;48.796;9.480;2023-12-20T07:53:42;4.15;;;3.75;;
1346;SDS011;667;48.796;9.480;2023-12-20T07:56:17;3.53;;;3.23;;
1346;SDS011;667;48.796;9.480;2023-12-20T07:58:44;3.80;;;3.20;;
1346;SDS011;667;48.796;9.480;2023-12-20T08:01:10;4.20;;;3.60;;
1346;SDS011;667;48.796;9.480;2023-12-20T08:03:37;4.30;;;3.60;;
1346;SDS011;667;48.796;9.480;2023-12-20T08:06:03;3.88;;;3.45;;
1346;SDS011;667;48.796;9.480;2023-12-20T08:08:29;4.07;;;3.15;;
1346;SDS011;667;48.796;9.480;2023-12-20T08:10:54;3.60;;;3.30;;
1346;SDS011;667;48.796;9.480;2023-12-20T08:13:22;4.30;;;3.50;;
1346;SDS011;667;48.796;9.480;2023-12-20T08:15:50;3.67;;;3.25;;
1346;SDS011;667;48.796;9.480;2023-12-20T08:18:16;3.50;;;3.20;;
1346;SDS011;667;48.796;9.480;2023-12-20T08:20:42;5.67;;;5.13;;
1346;SDS011;667;48.796;9.480;2023-12-20T08:23:07;4.20;;;3.80;;
1346;SDS011;667;48.796;9.480;2023-12-20T08:25:33;8.47;;;5.07;;
1346;SDS011;667;48.796;9.480;2023-12-20T08:27:58;6.03;;;5.53;;
1346;SDS011;667;48.796;9.480;2023-12-20T08:30:24;24.67;;;17.47;;
1346;SDS011;667;48.796;9.480;2023-12-20T08:32:50;6.10;;;5.47;;
1346;SDS011;667;48.796;9.480;2023-12-20T08:35:15;20.73;;;15.53;;
1346;SDS011;667;48.796;9.480;2023-12-20T08:37:42;5.22;;;4.82;;
1346;SDS011;667;48.796;9.480;2023-12-20T08:40:08;6.00;;;5.03;;
1346;SDS011;667;48.796;9.480;2023-12-20T08:42:34;6.05;;;5.53;;
1346;SDS011;667;48.796;9.480;2023-12-20T08:44:59;4.17;;;3.20;;
1346;SDS011;667;48.796;9.480;2023-12-20T08:47:25;6.77;;;6.10;;
1346;SDS011;667;48.796;9.480;2023-12-20T08:49:50;3.00;;;2.80;;
1346;SDS011;667;48.796;9.480;2023-12-20T08:52:21;5.25;;;3.47;;
1346;SDS011;667;48.796;9.480;2023-12-20T08:54:49;4.35;;;2.83;;
1346;SDS011;667;48.796;9.480;2023-12-20T08:57:21;4.40;;;3.88;;
1346;SDS011;667;48.796;9.480;2023-12-20T08:59:48;5.45;;;3.10;;
1346;SDS011;667;48.796;9.480;2023-12-20T09:02:14;3.83;;;3.20;;
1346;SDS011;667;48.796;9.480;2023-12-20T09:04:40;2.88;;;2.67;;
1346;SDS011;667;48.796;9.480;2023-12-20T09:07:06;3.50;;;2.73;;
1346;SDS011;667;48.796;9.480;2023-12-20T09:09:32;3.75;;;2.75;;
1346;SDS011;667;48.796;9.480;2023-12-20T09:11:58;6.13;;;3.33;;
1346;SDS011;667;48.796;9.480;2023-12-20T09:14:24;4.53;;;3.55;;
1346;SDS011;667;48.796;9.480;2023-12-20T09:16:49;2.73;;;2.53;;
1346;SDS011;667;48.796;9.480;2023-12-20T09:19:16;3.25;;;1.85;;
1346;SDS011;667;48.796;9.480;2023-12-20T09:21:42;2.53;;;2.33;;
1346;SDS011;667;48.796;9.480;2023-12-20T09:24:08;3.10;;;2.40;;
1346;SDS011;667;48.796;9.480;2023-12-20T09:26:34;4.03;;;2.20;;
1346;SDS011;667;48.796;9.480;2023-12-20T09:28:59;3.20;;;2.47;;
1346;SDS011;667;48.796;9.480;2023-12-20T09:31:25;2.03;;;1.83;;
1346;SDS011;667;48.796;9.480;2023-12-20T09:33:51;3.63;;;2.17;;
1346;SDS011;667;48.796;9.480;2023-12-20T09:36:16;2.40;;;1.87;;
1346;SDS011;667;48.796;9.480;2023-12-20T09:38:42;2.40;;;2.20;;
1346;SDS011;667;48.796;9.480;2023-12-20T09:41:07;2.73;;;2.33;;
1346;SDS011;667;48.796;9.480;2023-12-20T09:43:34;3.97;;;1.90;;
1346;SDS011;667;48.796;9.480;2023-12-20T09:46:02;1.90;;;1.70;;
1346;SDS011;667;48.796;9.480;2023-12-20T09:48:30;3.00;;;2.10;;
1346;SDS011;667;48.796;9.480;2023-12-20T09:50:57;2.10;;;1.77;;
1346;SDS011;667;48.796;9.480;2023-12-20T09:53:23;1.87;;;1.77;;
1346;SDS011;667;48.796;9.480;2023-12-20T09:55:54;6.77;;;4.53;;
1346;SDS011;667;48.796;9.480;2023-12-20T09:58:25;2.93;;;1.90;;
1346;SDS011;667;48.796;9.480;2023-12-20T10:00:51;4.10;;;2.03;;
1346;SDS011;667;48.796;9.480;2023-12-20T10:03:17;2.27;;;1.90;;
1346;SDS011;667;48.796;9.480;2023-12-20T10:05:49;2.40;;;2.20;;
1346;SDS011;667;48.796;9.480;2023-12-20T10:08:21;3.73;;;1.97;;
1346;SDS011;667;48.796;9.480;2023-12-20T10:10:47;1.90;;;1.37;;
1346;SDS011;667;48.796;9.480;2023-12-20T10:13:13;2.33;;;1.80;;
1346;SDS011;667;48.796;9.480;2023-12-20T10:15:40;3.70;;;2.73;;
1346;SDS011;667;48.796;9.480;2023-12-20T10:18:05;3.47;;;1.97;;
1346;SDS011;667;48.796;9.480;2023-12-20T10:20:31;2.83;;;2.33;;
1346;SDS011;667;48.796;9.480;2023-12-20T10:22:58;2.87;;;1.97;;
1346;SDS011;667;48.796;9.480;2023-12-20T10:25:24;2.30;;;2.10;;
1346;SDS011;667;48.796;9.480;2023-12-20T10:27:50;3.07;;;2.40;;
1346;SDS011;667;48.796;9.480;2023-12-20T10:30:34;2.87;;;1.83;;
1346;SDS011;667;48.796;9.480;2023-12-20T10:33:00;6.40;;;1.60;;
1346;SDS011;667;48.796;9.480;2023-12-20T10:35:26;1.70;;;1.60;;
1346;SDS011;667;48.796;9.480;2023-12-20T10:37:52;3.60;;;1.70;;
1346;SDS011;667;48.796;9.480;2023-12-20T10:40:23;3.47;;;1.87;;
1346;SDS011;667;48.796;9.480;2023-12-20T10:42:52;2.73;;;1.43;;
1346;SDS011;667;48.796;9.480;2023-12-20T10:45:19;3.60;;;1.90;;
1346;SDS011;667;48.796;9.480;2023-12-20T10:47:46;5.57;;;2.97;;
1346;SDS011;667;48.796;9.480;2023-12-20T10:50:12;1.63;;;1.40;;
1346;SDS011;667;48.796;9.480;2023-12-20T10:52:37;2.03;;;1.50;;
1346;SDS011;667;48.796;9.480;2023-12-20T10:55:05;4.70;;;2.93;;
1346;SDS011;667;48.796;9.480;2023-12-20T10:57:31;4.20;;;1.67;;
1346;SDS011;667;48.796;9.480;2023-12-20T10:59:58;4.50;;;1.83;;
1346;SDS011;667;48.796;9.480;2023-12-20T11:02:31;3.87;;;1.70;;
1346;SDS011;667;48.796;9.480;2023-12-20T11:05:15;3.73;;;1.57;;
1346;SDS011;667;48.796;9.480;2023-12-20T11:07:48;7.07;;;3.33;;
1346;SDS011;667;48.796;9.480;2023-12-20T11:10:29;6.27;;;2.40;;
1346;SDS011;667;48.796;9.480;2023-12-20T11:13:17;2.80;;;1.20;;
1346;SDS011;667;48.796;9.480;2023-12-20T11:15:47;4.13;;;1.70;;
1346;SDS011;667;48.796;9.480;2023-12-20T11:18:13;2.93;;;1.63;;
1346;SDS011;667;48.796;9.480;2023-12-20T11:20:40;3.80;;;2.47;;
1346;SDS011;667;48.796;9.480;2023-12-20T11:23:10;6.30;;;3.65;;
1346;SDS011;667;48.796;9.480;2023-12-20T11:28:33;4.65;;;4.05;;
1346;SDS011;667;48.796;9.480;2023-12-20T11:31:00;4.90;;;3.20;;
1346;SDS011;667;48.796;9.480;2023-12-20T11:33:30;4.72;;;3.20;;
1346;SDS011;667;48.796;9.480;2023-12-20T11:36:12;3.03;;;2.22;;
1346;SDS011;667;48.796;9.480;2023-12-20T11:38:49;2.70;;;1.80;;
1346;SDS011;667;48.796;9.480;2023-12-20T11:41:22;2.80;;;2.00;;
1346;SDS011;667;48.796;9.480;2023-12-20T11:43:49;4.28;;;2.08;;
1346;SDS011;667;48.796;9.480;2023-12-20T11:46:19;3.30;;;1.67;;
1346;SDS011;667;48.796;9.480;2023-12-20T11:48:45;2.30;;;1.40;;
1346;SDS011;667;48.796;9.480;2023-12-20T11:51:12;3.20;;;1.92;;
1346;SDS011;667;48.796;9.480;2023-12-20T11:53:39;3.85;;;1.90;;
1346;SDS011;667;48.796;9.480;2023-12-20T11:56:07;2.72;;;1.70;;
1346;SDS011;667;48.796;9.480;2023-12-20T11:58:36;4.28;;;1.40;;
1346;SDS011;667;48.796;9.480;2023-12-20T12:01:02;4.65;;;1.50;;
1346;SDS011;667;48.796;9.480;2023-12-20T12:03:27;2.93;;;1.43;;
1346;SDS011;667;48.796;9.480;2023-12-20T12:05:53;3.73;;;1.30;;
1346;SDS011;667;48.796;9.480;2023-12-20T12:08:18;6.00;;;1.80;;
1346;SDS011;667;48.796;9.480;2023-12-20T12:10:44;3.33;;;2.03;;
1346;SDS011;667;48.796;9.480;2023-12-20T12:13:10;2.60;;;1.50;;
1346;SDS011;667;48.796;9.480;2023-12-20T12:15:37;4.15;;;1.70;;
1346;SDS011;667;48.796;9.480;2023-12-20T12:18:03;2.10;;;1.27;;
1346;SDS011;667;48.796;9.480;2023-12-20T12:20:30;2.83;;;1.50;;
1346;SDS011;667;48.796;9.480;2023-12-20T12:25:31;5.47;;;3.38;;
1346;SDS011;667;48.796;9.480;2023-12-20T12:27:58;2.95;;;2.40;;
1346;SDS011;667;48.796;9.480;2023-12-20T12:30:24;2.72;;;1.58;;
1346;SDS011;667;48.796;9.480;2023-12-20T12:32:51;3.80;;;1.83;;
1346;SDS011;667;48.796;9.480;2023-12-20T12:35:17;1.90;;;1.70;;
1346;SDS011;667;48.796;9.480;2023-12-20T12:37:43;4.55;;;1.55;;
1346;SDS011;667;48.796;9.480;2023-12-20T12:40:10;3.43;;;1.80;;
1346;SDS011;667;48.796;9.480;2023-12-20T12:42:37;3.17;;;1.70;;
1346;SDS011;667;48.796;9.480;2023-12-20T12:45:03;2.67;;;2.20;;
1346;SDS011;667;48.796;9.480;2023-12-20T12:47:29;3.70;;;1.50;;
1346;SDS011;667;48.796;9.480;2023-12-20T12:49:55;4.25;;;1.67;;
1346;SDS011;667;48.796;9.480;2023-12-20T12:52:21;2.67;;;1.70;;
1346;SDS011;667;48.796;9.480;2023-12-20T12:54:47;3.42;;;1.83;;
1346;SDS011;667;48.796;9.480;2023-12-20T12:57:14;3.05;;;2.50;;
1346;SDS011;667;48.796;9.480;2023-12-20T12:59:43;3.83;;;1.70;;
1346;SDS011;667;48.796;9.480;2023-12-20T13:02:11;2.35;;;1.40;;
1346;SDS011;667;48.796;9.480;2023-12-20T13:04:38;1.60;;;1.50;;
1346;SDS011;667;48.796;9.480;2023-12-20T13:07:04;2.87;;;1.63;;
1346;SDS011;667;48.796;9.480;2023-12-20T13:09:29;2.30;;;1.73;;
1346;SDS011;667;48.796;9.480;2023-12-20T13:11:55;4.10;;;1.70;;
1346;SDS011;667;48.796;9.480;2023-12-20T13:14:20;2.50;;;1.60;;
1346;SDS011;667;48.796;9.480;2023-12-20T13:16:46;2.70;;;1.55;;
1346;SDS011;667;48.796;9.480;2023-12-20T13:19:12;3.43;;;1.60;;
1346;SDS011;667;48.796;9.480;2023-12-20T13:21:38;5.00;;;1.83;;
1346;SDS011;667;48.796;9.480;2023-12-20T13:24:04;2.60;;;1.75;;
1346;SDS011;667;48.796;9.480;2023-12-20T13:26:30;2.97;;;1.70;;
1346;SDS011;667;48.796;9.480;2023-12-20T13:28:56;2.47;;;1.50;;
1346;SDS011;667;48.796;9.480;2023-12-20T13:31:21;3.00;;;1.40;;
1346;SDS011;667;48.796;9.480;2023-12-20T13:33:47;2.80;;;1.73;;
1346;SDS011;667;48.796;9.480;2023-12-20T13:36:12;3.10;;;1.40;;
1346;SDS011;667;48.796;9.480;2023-12-20T13:38:38;1.50;;;1.40;;
1346;SDS011;667;48.796;9.480;2023-12-20T13:41:04;3.27;;;1.63;;
1346;SDS011;667;48.796;9.480;2023-12-20T13:43:30;1.90;;;1.70;;
1346;SDS011;667;48.796;9.480;2023-12-20T13:45:59;4.00;;;2.42;;
1346;SDS011;667;48.796;9.480;2023-12-20T13:48:25;2.50;;;1.90;;
1346;SDS011;667;48.796;9.480;2023-12-20T13:50:50;6.00;;;1.80;;
1346;SDS011;667;48.796;9.480;2023-12-20T13:53:16;3.53;;;1.73;;
1346;SDS011;667;48.796;9.480;2023-12-20T13:55:41;2.27;;;1.80;;
1346;SDS011;667;48.796;9.480;2023-12-20T13:58:07;2.70;;;1.60;;
1346;SDS011;667;48.796;9.480;2023-12-20T14:00:35;2.28;;;1.58;;
1346;SDS011;667;48.796;9.480;2023-12-20T14:03:01;3.90;;;1.90;;
1346;SDS011;667;48.796;9.480;2023-12-20T14:05:28;4.80;;;1.83;;
1346;SDS011;667;48.796;9.480;2023-12-20T14:07:53;3.87;;;2.30;;
1346;SDS011;667;48.796;9.480;2023-12-20T14:10:19;9.70;;;5.50;;
1346;SDS011;667;48.796;9.480;2023-12-20T14:12:44;15.70;;;10.00;;
1346;SDS011;667;48.796;9.480;2023-12-20T14:15:10;2.30;;;1.40;;
1346;SDS011;667;48.796;9.480;2023-12-20T14:17:38;5.22;;;3.85;;
1346;SDS011;667;48.796;9.480;2023-12-20T14:20:07;2.90;;;1.95;;
1346;SDS011;667;48.796;9.480;2023-12-20T14:22:33;2.88;;;2.40;;
1346;SDS011;667;48.796;9.480;2023-12-20T14:24:59;1.80;;;1.35;;
1346;SDS011;667;48.796;9.480;2023-12-20T14:27:26;1.47;;;1.27;;
1346;SDS011;667;48.796;9.480;2023-12-20T14:29:55;6.28;;;1.90;;
1346;SDS011;667;48.796;9.480;2023-12-20T14:32:20;5.10;;;2.23;;
1346;SDS011;667;48.796;9.480;2023-12-20T14:34:46;1.90;;;1.40;;
1346;SDS011;667;48.796;9.480;2023-12-20T14:37:12;4.83;;;1.73;;
1346;SDS011;667;48.796;9.480;2023-12-20T14:39:37;4.00;;;3.33;;
1346;SDS011;667;48.796;9.480;2023-12-20T14:42:06;3.13;;;1.92;;
1346;SDS011;667;48.796;9.480;2023-12-20T14:44:38;5.97;;;2.00;;
1346;SDS011;667;48.796;9.480;2023-12-20T14:47:04;3.20;;;1.58;;
1346;SDS011;667;48.796;9.480;2023-12-20T14:49:30;2.10;;;1.43;;
1346;SDS011;667;48.796;9.480;2023-12-20T14:51:56;4.28;;;1.13;;
1346;SDS011;667;48.796;9.480;2023-12-20T14:54:22;3.57;;;1.33;;
1346;SDS011;667;48.796;9.480;2023-12-20T14:56:47;3.20;;;1.40;;
1346;SDS011;667;48.796;9.480;2023-12-20T14:59:13;5.83;;;2.73;;
1346;SDS011;667;48.796;9.480;2023-12-20T15:01:39;8.00;;;3.80;;
1346;SDS011;667;48.796;9.480;2023-12-20T15:04:08;5.88;;;2.42;;
1346;SDS011;667;48.796;9.480;2023-12-20T15:06:34;5.73;;;3.27;;
1346;SDS011;667;48.796;9.480;2023-12-20T15:08:59;5.20;;;3.67;;
1346;SDS011;667;48.796;9.480;2023-12-20T15:11:25;8.90;;;2.60;;
1346;SDS011;667;48.796;9.480;2023-12-20T15:13:51;4.97;;;1.40;;
1346;SDS011;667;48.796;9.480;2023-12-20T15:16:21;7.53;;;4.20;;
1346;SDS011;667;48.796;9.480;2023-12-20T15:18:47;9.85;;;3.33;;
1346;SDS011;667;48.796;9.480;2023-12-20T15:21:12;7.80;;;3.13;;
1346;SDS011;667;48.796;9.480;2023-12-20T15:23:39;10.88;;;5.32;;
1346;SDS011;667;48.796;9.480;2023-12-20T15:26:08;10.90;;;5.97;;
1346;SDS011;667;48.796;9.480;2023-12-20T15:28:34;15.13;;;7.00;;
1346;SDS011;667;48.796;9.480;2023-12-20T15:30:59;4.90;;;4.00;;